Time;durP1;ratioP1;P1;durP2;ratioP2;P2;SDS_P1;SDS_P2;PMS_P1;PMS_P2;Temp;Humidity;BMP_temperature;BMP_pressure;BME280_temperature;BME280_humidity;BME280_pressure;Samples;Min_cycle;Max_cycle;Signal;HPM_P1;HPM_P2
2022/02/19 00:02:12;;;;;;;45.25;16.48;;;205.50;1664.00;;;;;;4927134;29;20481;-93
2022/02/19 00:04:38;;;;;;;28.90;12.25;;;205.50;1664.00;;;;;;4922415;29;20114;-93
2022/02/19 00:07:05;;;;;;;27.75;11.27;;;205.50;1664.00;;;;;;4921128;29;20087;-93
2022/02/19 00:09:31;;;;;;;24.05;10.60;;;205.60;1664.00;;;;;;4922265;29;20023;-93
2022/02/19 00:11:57;;;;;;;24.00;10.55;;;205.60;1638.40;;;;;;4922441;29;20031;-92
2022/02/19 00:14:23;;;;;;;24.05;10.38;;;205.50;1664.00;;;;;;4921434;29;20532;-93
2022/02/19 00:16:49;;;;;;;26.33;11.60;;;205.40;1664.00;;;;;;4921697;29;20032;-92
2022/02/19 00:19:15;;;;;;;26.88;11.48;;;205.40;1664.00;;;;;;4921507;29;20031;-93
2022/02/19 00:21:41;;;;;;;25.00;10.77;;;205.50;1664.00;;;;;;4922113;29;20465;-93
2022/02/19 00:24:07;;;;;;;32.70;12.50;;;205.50;1664.00;;;;;;4921198;29;20027;-92
2022/02/19 00:26:34;;;;;;;25.90;10.75;;;205.50;1664.00;;;;;;4920939;29;20042;-93
2022/02/19 00:29:00;;;;;;;41.83;19.17;;;205.60;1638.40;;;;;;4937970;29;20055;-96
2022/02/19 00:31:26;;;;;;;49.60;22.77;;;205.60;1638.40;;;;;;4920989;29;20041;-93
2022/02/19 00:33:56;;;;;;;30.33;13.48;;;205.50;1664.00;;;;;;4921521;29;20392;-92
2022/02/19 00:36:24;;;;;;;26.45;10.55;;;205.50;1664.00;;;;;;4920528;29;20073;-92
2022/02/19 00:38:49;;;;;;;19.00;9.90;;;205.60;1689.60;;;;;;4924743;29;20036;-92
2022/02/19 00:41:15;;;;;;;29.58;11.50;;;205.60;1664.00;;;;;;4925831;29;20043;-92
2022/02/19 00:43:51;;;;;;;23.33;11.50;;;;;;;;;;4930048;29;20102;-92
2022/02/19 00:46:17;;;;;;;22.60;11.98;;;;;;;;;;4927650;29;20127;-93
2022/02/19 00:48:44;;;;;;;29.77;11.38;;;;;;;;;;4938947;29;20032;-92
2022/02/19 00:51:19;;;;;;;31.45;11.93;;;;;;;;;;4955169;29;20020;-92
2022/02/19 00:53:45;;;;;;;21.42;11.25;;;;;;;;;;4936883;29;20012;-92
2022/02/19 00:56:11;;;;;;;27.80;12.25;;;;;;;;;;4933846;29;20028;-96
2022/02/19 00:58:38;;;;;;;26.10;10.95;;;;;;;;;;4934241;29;20385;-96
2022/02/19 01:01:05;;;;;;;24.55;12.32;;;;;;;;;;4928353;29;20039;-93
2022/02/19 01:03:31;;;;;;;35.70;14.48;;;;;;;;;;4927333;29;20027;-92
2022/02/19 01:05:58;;;;;;;34.90;14.10;;;;;;;;;;4928639;29;20131;-96
2022/02/19 01:08:24;;;;;;;34.78;16.58;;;;;;;;;;4926833;29;20083;-94
2022/02/19 01:10:50;;;;;;;37.55;17.52;;;;;;;;;;4935931;29;20007;-96
2022/02/19 01:13:31;;;;;;;43.08;18.98;;;;;;;;;;4937641;29;20028;-94
2022/02/19 01:16:00;;;;;;;48.08;19.90;;;;;;;;;;4938536;29;20035;-94
2022/02/19 01:18:26;;;;;;;43.45;19.20;;;;;;;;;;4937490;29;20020;-93
2022/02/19 01:20:52;;;;;;;45.60;18.55;;;;;;;;;;4926306;29;20055;-92
2022/02/19 01:23:18;;;;;;;40.63;17.42;;;;;;;;;;4920357;29;20028;-92
2022/02/19 01:25:45;;;;;;;38.38;15.57;;;;;;;;;;4937750;29;20043;-92
2022/02/19 01:28:11;;;;;;;30.25;14.38;;;;;;;;;;4939792;29;20028;-92
2022/02/19 01:30:37;;;;;;;133.85;50.05;;;;;;;;;;4928025;29;20023;-92
2022/02/19 01:33:03;;;;;;;98.22;36.72;;;;;;;;;;4949724;29;20098;-92
2022/02/19 01:35:29;;;;;;;196.07;79.47;;;;;;;;;;4933873;29;20028;-96
2022/02/19 01:37:56;;;;;;;213.43;91.65;;;;;;;;;;4948156;29;20028;-92
2022/02/19 01:40:40;;;;;;;162.80;83.80;;;;;;;;;;4935692;29;20027;-95
2022/02/19 01:43:06;;;;;;;44.63;23.50;;;;;;;;;;4931095;29;20052;-92
2022/02/19 01:45:33;;;;;;;32.90;14.00;;;;;;;;;;4928913;29;20130;-96
2022/02/19 01:47:59;;;;;;;22.85;11.32;;;;;;;;;;4932154;29;20051;-92
2022/02/19 01:50:28;;;;;;;24.65;11.35;;;;;;;;;;4932145;29;20032;-96
2022/02/19 01:52:55;;;;;;;25.05;10.43;;;;;;;;;;4930499;29;20416;-92
2022/02/19 01:55:21;;;;;;;21.27;8.82;;;;;;;;;;4936323;29;20027;-96
2022/02/19 01:57:48;;;;;;;21.17;9.52;;;;;;;;;;4936931;29;20043;-92
2022/02/19 02:00:15;;;;;;;20.50;8.32;;;205.00;1766.40;;;;;;4933987;29;20111;-95
2022/02/19 02:02:42;;;;;;;44.28;10.02;;;;;;;;;;4924819;29;20065;-92
2022/02/19 02:05:08;;;;;;;32.78;9.88;;;;;;;;;;4924490;29;20031;-96
2022/02/19 02:07:35;;;;;;;24.08;9.23;;;;;;;;;;4929463;29;20147;-92
2022/02/19 02:10:02;;;;;;;23.60;8.40;;;;;;;;;;4931630;29;20023;-92
2022/02/19 02:12:28;;;;;;;19.75;7.20;;;;;;;;;;4923965;29;20032;-92
2022/02/19 02:14:55;;;;;;;19.42;6.93;;;;;;;;;;4924204;29;20148;-92
2022/02/19 02:17:22;;;;;;;19.63;6.82;;;;;;;;;;4924560;29;20055;-93
2022/02/19 02:19:48;;;;;;;15.82;5.97;;;;;;;;;;4925423;29;20023;-92
2022/02/19 02:22:15;;;;;;;16.77;6.20;;;;;;;;;;4924518;29;20050;-92
2022/02/19 02:24:41;;;;;;;17.30;6.05;;;;;;;;;;4941474;29;20020;-92
2022/02/19 02:27:12;;;;;;;18.08;6.63;;;;;;;;;;4923823;29;20032;-92
2022/02/19 02:29:41;;;;;;;17.17;5.47;;;;;;;;;;4924624;29;20035;-95
2022/02/19 02:32:08;;;;;;;12.70;5.93;;;;;;;;;;4926373;29;20036;-92
2022/02/19 02:34:52;;;;;;;14.88;5.43;;;179.60;1766.40;;;;;;4924550;29;20091;-92
2022/02/19 02:37:18;;;;;;;12.75;5.57;;;179.60;1792.00;;;;;;4940092;29;20024;-92
2022/02/19 02:39:46;;;;;;;11.45;4.97;;;179.60;1792.00;;;;;;4922738;29;20042;-92
2022/02/19 02:42:14;;;;;;;23.85;8.27;;;179.60;1792.00;;;;;;4921749;29;20417;-92
2022/02/19 02:44:41;;;;;;;50.80;17.00;;;179.60;1792.00;;;;;;4922510;29;20106;-92
2022/02/19 02:47:08;;;;;;;50.20;21.35;;;179.60;1792.00;;;;;;4922307;29;20512;-92
2022/02/19 02:49:34;;;;;;;59.30;22.38;;;179.70;1792.00;;;;;;4922344;29;20034;-92
2022/02/19 02:52:00;;;;;;;41.63;16.15;;;179.70;1792.00;;;;;;4939289;29;20095;-93
2022/02/19 02:54:26;;;;;;;47.03;20.02;;;179.60;1792.00;;;;;;4922233;29;20119;-92
2022/02/19 02:56:52;;;;;;;51.90;22.08;;;179.60;1792.00;;;;;;4922036;29;20042;-92
2022/02/19 02:59:18;;;;;;;49.50;19.58;;;179.50;1792.00;;;;;;4923174;29;20028;-92
2022/02/19 03:01:43;;;;;;;47.65;19.33;;;179.50;1843.20;;;;;;4922624;29;20515;-92
2022/02/19 03:04:09;;;;;;;44.45;17.25;;;179.50;1843.20;;;;;;4925755;29;20043;-93
2022/02/19 03:06:35;;;;;;;43.90;16.90;;;179.50;1868.80;;;;;;4926452;29;20095;-92
2022/02/19 03:09:02;;;;;;;42.70;16.55;;;179.50;1843.20;;;;;;4930044;29;20587;-92
2022/02/19 03:11:27;;;;;;;45.65;17.13;;;179.50;1817.60;;;;;;4914422;29;20026;-94
2022/02/19 03:13:54;;;;;;;44.47;17.83;;;179.50;1868.80;;;;;;4930133;28;20453;-92
2022/02/19 03:16:20;;;;;;;44.90;18.27;;;179.50;1843.20;;;;;;4933777;29;20011;-96
2022/02/19 03:18:46;;;;;;;40.25;16.67;;;179.50;1843.20;;;;;;4933671;29;20048;-92
2022/02/19 03:21:12;;;;;;;44.72;16.92;;;179.50;1868.80;;;;;;4930588;29;20031;-93
2022/02/19 03:23:38;;;;;;;54.42;17.80;;;179.40;1843.20;;;;;;4927770;29;20035;-92
2022/02/19 03:26:07;;;;;;;47.10;18.33;;;179.30;1843.20;;;;;;4923606;29;20520;-96
2022/02/19 03:28:34;;;;;;;46.75;20.00;;;179.40;1868.80;;;;;;4941506;29;20028;-92
2022/02/19 03:31:00;;;;;;;55.13;22.40;;;179.20;1868.80;;;;;;4929385;29;20031;-96
2022/02/19 03:33:26;;;;;;;58.67;22.75;;;179.20;1868.80;;;;;;4934907;29;20031;-96
2022/02/19 03:35:54;;;;;;;56.58;23.02;;;154.50;1894.40;;;;;;4922747;29;20392;-93
2022/02/19 03:38:21;;;;;;;52.25;21.30;;;179.20;1894.40;;;;;;4922724;29;20023;-96
2022/02/19 03:40:47;;;;;;;69.18;27.25;;;154.50;1894.40;;;;;;4922948;29;20070;-92
2022/02/19 03:43:13;;;;;;;75.30;28.60;;;154.40;1843.20;;;;;;4921251;29;20079;-93
2022/02/19 03:45:43;;;;;;;83.72;34.63;;;179.30;1843.20;;;;;;4921349;29;20036;-92
2022/02/19 03:48:10;;;;;;;86.50;35.20;;;154.30;1843.20;;;;;;4921502;29;20043;-96
2022/02/19 03:50:36;;;;;;;93.40;35.28;;;154.20;1868.80;;;;;;4922085;29;20027;-93
2022/02/19 03:53:03;;;;;;;77.85;31.30;;;154.20;1868.80;;;;;;4920844;29;20032;-92
2022/02/19 03:55:29;;;;;;;86.93;32.28;;;154.20;1868.80;;;;;;4921400;29;20032;-96
2022/02/19 03:57:55;;;;;;;66.07;26.23;;;154.20;1894.40;;;;;;4921329;29;20024;-92
2022/02/19 04:00:22;;;;;;;68.47;25.48;;;154.20;1894.40;;;;;;4940418;29;20036;-96
2022/02/19 04:02:48;;;;;;;65.25;24.17;;;154.20;1868.80;;;;;;4924695;29;20091;-96
2022/02/19 04:05:15;;;;;;;72.90;27.35;;;154.20;1894.40;;;;;;4923135;29;20472;-93
2022/02/19 04:07:41;;;;;;;70.40;27.63;;;154.20;1868.80;;;;;;4921592;29;20031;-96
2022/02/19 04:10:09;;;;;;;68.03;27.02;;;153.90;1920.00;;;;;;4923741;29;20087;-96
2022/02/19 04:12:35;;;;;;;73.65;29.33;;;153.90;1945.60;;;;;;4923274;29;20397;-93
2022/02/19 04:15:02;;;;;;;68.40;25.88;;;153.90;1945.60;;;;;;4940753;29;20560;-92
2022/02/19 04:17:28;;;;;;;64.82;25.98;;;153.90;1945.60;;;;;;4924754;29;20075;-93
2022/02/19 04:19:53;;;;;;;66.47;25.42;;;153.90;1971.20;;;;;;4923724;29;20028;-92
2022/02/19 04:22:32;;;;;;;64.43;24.70;;;154.00;1971.20;;;;;;4925082;29;20046;-93
2022/02/19 04:24:57;;;;;;;62.90;23.80;;;154.10;1996.80;;;;;;4926265;29;20031;-96
2022/02/19 04:27:25;;;;;;;64.63;25.60;;;154.10;1945.60;;;;;;4923429;29;20511;-93
2022/02/19 04:29:51;;;;;;;63.50;23.63;;;154.00;1971.20;;;;;;4922323;29;20027;-93
2022/02/19 04:32:17;;;;;;;56.28;22.58;;;154.10;1971.20;;;;;;4921558;29;20035;-92
2022/02/19 04:34:43;;;;;;;58.97;23.83;;;154.10;1971.20;;;;;;4922729;29;20513;-96
2022/02/19 04:37:09;;;;;;;67.82;25.80;;;154.00;1971.20;;;;;;4939644;29;20079;-96
2022/02/19 04:39:35;;;;;;;64.22;25.00;;;154.00;1971.20;;;;;;4923793;29;20028;-93
2022/02/19 04:42:01;;;;;;;59.65;25.20;;;154.00;1945.60;;;;;;4921866;29;20043;-92
2022/02/19 04:44:27;;;;;;;62.85;24.50;;;153.90;1971.20;;;;;;4921427;29;20048;-92
2022/02/19 04:46:53;;;;;;;57.30;23.70;;;153.90;1996.80;;;;;;4921631;29;20511;-93
2022/02/19 04:49:27;;;;;;;81.20;31.98;;;153.90;1996.80;;;;;;4925478;29;20051;-92
2022/02/19 04:51:53;;;;;;;65.55;26.45;;;154.00;1996.80;;;;;;4923332;29;20032;-92
2022/02/19 04:54:19;;;;;;;70.47;26.70;;;153.90;1996.80;;;;;;4925697;29;20024;-96
2022/02/19 04:56:45;;;;;;;76.95;27.00;;;153.90;1996.80;;;;;;4926090;29;20130;-93
2022/02/19 04:59:10;;;;;;;75.18;26.00;;;153.90;2022.40;;;;;;4927834;29;20024;-96
2022/02/19 05:01:36;;;;;;;76.40;32.13;;;153.90;1945.60;;;;;;4925788;29;20034;-92
2022/02/19 05:04:02;;;;;;;73.82;31.00;;;154.00;1971.20;;;;;;4920124;29;20032;-93
2022/02/19 05:06:28;;;;;;;72.78;28.73;;;153.90;1971.20;;;;;;4922976;29;20119;-96
2022/02/19 05:08:54;;;;;;;86.10;30.77;;;153.70;1971.20;;;;;;4924506;29;20115;-92
2022/02/19 05:11:20;;;;;;;78.28;29.23;;;153.70;1996.80;;;;;;4924310;29;20035;-92
2022/02/19 05:13:46;;;;;;;74.55;29.70;;;153.60;2048.00;;;;;;4925082;29;20031;-92
2022/02/19 05:16:11;;;;;;;122.75;40.33;;;153.60;2048.00;;;;;;4926719;29;20035;-96
2022/02/19 05:18:37;;;;;;;114.65;44.50;;;153.60;2073.60;;;;;;4947491;29;20038;-96
2022/02/19 05:21:03;;;;;;;111.20;40.90;;;153.70;2048.00;;;;;;4949232;29;20038;-92
2022/02/19 05:23:29;;;;;;;94.85;38.17;;;153.60;2073.60;;;;;;4948431;29;20031;-96
2022/02/19 05:25:55;;;;;;;87.80;38.50;;;153.70;2073.60;;;;;;4946421;29;20039;-92
2022/02/19 05:28:21;;;;;;;129.38;51.05;;;153.80;2048.00;;;;;;4943447;29;20027;-92
2022/02/19 05:30:47;;;;;;;99.45;39.55;;;153.90;2048.00;;;;;;4956298;29;20023;-96
2022/02/19 05:33:13;;;;;;;100.72;40.03;;;154.00;2048.00;;;;;;4934484;29;20480;-94
2022/02/19 05:35:39;;;;;;;88.32;39.17;;;153.90;2048.00;;;;;;4940774;29;20500;-96
2022/02/19 05:38:05;;;;;;;83.78;37.50;;;153.90;2073.60;;;;;;4947533;29;20020;-96
2022/02/19 05:40:30;;;;;;;95.03;39.92;;;154.00;2048.00;;;;;;4946950;29;20030;-96
2022/02/19 05:42:56;;;;;;;92.57;41.38;;;154.00;2022.40;;;;;;4943799;29;20019;-96
2022/02/19 05:45:22;;;;;;;86.80;38.40;;;154.20;2022.40;;;;;;4942742;29;20035;-93
2022/02/19 05:47:48;;;;;;;77.90;35.65;;;154.20;2048.00;;;;;;4933369;29;20544;-92
2022/02/19 05:50:14;;;;;;;85.50;35.30;;;154.20;2048.00;;;;;;4929239;29;20053;-92
2022/02/19 05:52:40;;;;;;;66.25;31.02;;;154.20;2048.00;;;;;;4927063;29;20023;-92
2022/02/19 05:55:06;;;;;;;62.00;27.25;;;154.30;2073.60;;;;;;4926704;29;20020;-96
2022/02/19 05:57:32;;;;;;;54.63;23.50;;;154.40;2048.00;;;;;;4933072;29;20031;-93
2022/02/19 05:59:58;;;;;;;47.42;19.85;;;154.40;2073.60;;;;;;4934813;29;20007;-96
2022/02/19 06:02:24;;;;;;;40.67;17.15;;;154.40;2073.60;;;;;;4926395;29;20078;-96
2022/02/19 06:04:50;;;;;;;33.85;13.35;;;154.40;2048.00;;;;;;4926672;29;20028;-95
2022/02/19 06:07:16;;;;;;;27.60;12.23;;;154.40;2048.00;;;;;;4931025;29;20046;-94
2022/02/19 06:09:42;;;;;;;28.05;13.80;;;154.50;2022.40;;;;;;4928900;28;20028;-96
2022/02/19 06:12:08;;;;;;;27.45;10.88;;;154.50;2022.40;;;;;;4926791;29;20034;-96
2022/02/19 06:14:35;;;;;;;59.60;25.58;;;179.30;1971.20;;;;;;4935179;29;20028;-95
2022/02/19 06:17:03;;;;;;;145.50;74.80;;;179.40;1996.80;;;;;;4923631;29;20024;-95
2022/02/19 06:19:29;;;;;;;62.70;31.38;;;179.40;1971.20;;;;;;4941013;29;20032;-95
2022/02/19 06:21:55;;;;;;;55.70;26.70;;;179.40;1971.20;;;;;;4923273;29;20175;-96
2022/02/19 06:24:21;;;;;;;49.05;24.42;;;179.50;1971.20;;;;;;4922640;29;20038;-96
2022/02/19 06:26:47;;;;;;;35.35;18.90;;;179.50;1971.20;;;;;;4922604;29;20098;-96
2022/02/19 06:29:12;;;;;;;35.05;17.65;;;179.50;1971.20;;;;;;4927583;29;20032;-96
2022/02/19 06:31:38;;;;;;;35.55;17.15;;;179.50;1996.80;;;;;;4928538;29;20035;-95
2022/02/19 06:34:04;;;;;;;34.28;18.02;;;179.40;1996.80;;;;;;4927338;29;20083;-93
2022/02/19 06:36:30;;;;;;;45.20;21.52;;;179.40;1996.80;;;;;;4928199;29;20035;-95
2022/02/19 06:38:56;;;;;;;49.75;27.08;;;179.40;1996.80;;;;;;4922882;29;20429;-95
2022/02/19 06:41:21;;;;;;;55.22;26.67;;;179.50;1996.80;;;;;;4922782;29;20043;-93
2022/02/19 06:43:47;;;;;;;155.23;75.82;;;179.60;1996.80;;;;;;4923202;29;20052;-91
2022/02/19 06:46:13;;;;;;;266.38;134.70;;;179.60;2022.40;;;;;;4921490;29;20031;-91
2022/02/19 06:48:39;;;;;;;59.40;29.70;;;179.60;2022.40;;;;;;4922128;29;20038;-93
2022/02/19 06:51:05;;;;;;;32.35;17.40;;;179.70;1996.80;;;;;;4922211;29;20028;-94
2022/02/19 06:53:31;;;;;;;41.13;19.65;;;179.80;1971.20;;;;;;4938307;29;20035;-94
2022/02/19 06:55:56;;;;;;;44.58;22.95;;;179.90;1971.20;;;;;;4941090;29;20027;-94
2022/02/19 06:58:23;;;;;;;53.17;27.77;;;179.90;1971.20;;;;;;4941941;29;20035;-94
2022/02/19 07:00:51;;;;;;;101.40;48.30;;;180.10;1971.20;;;;;;4941188;29;20041;-91
2022/02/19 07:03:19;;;;;;;99.82;48.80;;;180.10;1971.20;;;;;;4940961;29;20027;-95
2022/02/19 07:05:45;;;;;;;92.35;44.63;;;204.80;1945.60;;;;;;4941427;29;20062;-92
2022/02/19 07:08:11;;;;;;;69.40;35.50;;;204.90;1945.60;;;;;;4941797;29;20518;-92
2022/02/19 07:10:37;;;;;;;80.38;43.50;;;204.90;1945.60;;;;;;4940953;29;20035;-94
2022/02/19 07:13:03;;;;;;;72.68;39.70;;;205.00;1920.00;;;;;;4942085;29;20036;-92
2022/02/19 07:15:28;;;;;;;39.13;21.30;;;205.10;1945.60;;;;;;4940789;29;20110;-93
2022/02/19 07:17:55;;;;;;;38.50;19.35;;;205.20;1920.00;;;;;;4941283;29;20027;-93
2022/02/19 07:20:22;;;;;;;32.30;16.70;;;205.30;1920.00;;;;;;4940895;29;20027;-94
2022/02/19 07:22:51;;;;;;;40.60;22.35;;;205.30;1894.40;;;;;;4941186;29;20031;-93
2022/02/19 07:25:21;;;;;;;56.70;31.15;;;205.40;1868.80;;;;;;4945386;29;20445;-96
2022/02/19 07:27:47;;;;;;;50.25;27.63;;;205.40;1868.80;;;;;;4926934;29;20130;-96
2022/02/19 07:30:16;;;;;;;46.78;23.63;;;205.50;1868.80;;;;;;4941091;29;20031;-93
2022/02/19 07:32:42;;;;;;;50.90;25.10;;;205.50;1868.80;;;;;;4940533;29;20027;-91
2022/02/19 07:35:09;;;;;;;47.40;23.35;;;205.60;1868.80;;;;;;4940320;29;20035;-92
2022/02/19 07:37:36;;;;;;;39.72;21.20;;;205.70;1868.80;;;;;;4940945;29;20485;-92
2022/02/19 07:40:03;;;;;;;67.32;32.20;;;205.70;1868.80;;;;;;4940686;29;20129;-92
2022/02/19 07:42:29;;;;;;;116.13;50.38;;;230.40;1868.80;;;;;;4940406;29;20097;-93
2022/02/19 07:44:56;;;;;;;87.85;37.30;;;230.40;1868.80;;;;;;4940280;29;20449;-95
2022/02/19 07:47:30;;;;;;;66.85;32.22;;;230.40;1868.80;;;;;;4941330;29;20054;-93
2022/02/19 07:58:27;;;;;;;143.68;70.82;;;230.60;1843.20;;;;;;4943015;29;20043;-94
2022/02/19 08:01:02;;;;;;;142.80;64.35;;;230.60;1843.20;;;;;;4925546;29;20031;-91
2022/02/19 08:03:30;;;;;;;246.18;113.78;;;230.70;1843.20;;;;;;4940170;29;20038;-93
2022/02/19 08:05:57;;;;;;;126.18;61.85;;;230.70;1843.20;;;;;;4926594;29;20023;-95
2022/02/19 08:08:23;;;;;;;138.80;56.00;;;230.80;1843.20;;;;;;4923544;29;20032;-96
2022/02/19 08:10:50;;;;;;;924.78;269.45;;;230.80;1843.20;;;;;;4920809;29;20035;-92
2022/02/19 08:13:18;;;;;;;856.58;230.45;;;230.90;1817.60;;;;;;4925446;29;20028;-96
2022/02/19 08:15:50;;;;;;;723.47;176.18;;;231.00;1817.60;;;;;;4923611;29;20028;-96
2022/02/19 08:18:17;;;;;;;148.98;45.88;;;231.00;1817.60;;;;;;4920764;29;20024;-92
2022/02/19 08:20:49;;;;;;;46.53;22.30;;;231.00;1817.60;;;;;;4936458;29;20038;-95
2022/02/19 08:23:18;;;;;;;41.10;21.90;;;231.00;1843.20;;;;;;4931309;29;20031;-93
2022/02/19 08:25:45;;;;;;;80.93;27.17;;;231.10;1945.60;;;;;;4938682;29;20395;-94
2022/02/19 08:28:11;;;;;;;44.50;20.83;;;231.20;1817.60;;;;;;4941026;29;20031;-93
2022/02/19 08:30:41;;;;;;;70.82;29.38;;;231.20;1817.60;;;;;;4938750;29;20012;-93
2022/02/19 08:33:09;;;;;;;65.93;30.77;;;231.20;1817.60;;;;;;4939145;29;20031;-94
2022/02/19 08:35:37;;;;;;;78.00;40.58;;;231.30;1817.60;;;;;;4930741;29;20067;-93
2022/02/19 08:38:04;;;;;;;77.38;38.53;;;231.30;1843.20;;;;;;4928713;29;20031;-92
2022/02/19 08:40:30;;;;;;;75.75;36.42;;;231.30;1843.20;;;;;;4941408;29;20031;-93
2022/02/19 08:43:31;;;;;;;68.03;32.13;;;256.00;1843.20;;;;;;4948019;29;20476;-92
2022/02/19 08:45:57;;;;;;;69.50;34.88;;;256.00;1868.80;;;;;;4950079;29;20031;-93
2022/02/19 08:48:23;;;;;;;101.50;51.13;;;256.10;1843.20;;;;;;4933481;29;20039;-94
2022/02/19 08:50:49;;;;;;;63.75;29.75;;;256.40;1843.20;;;;;;4949044;29;20126;-93
2022/02/19 08:53:16;;;;;;;73.38;33.65;;;256.20;1843.20;;;;;;4950572;29;20038;-93
2022/02/19 08:55:43;;;;;;;64.05;33.45;;;256.30;1868.80;;;;;;4961429;29;20042;-93
2022/02/19 08:58:09;;;;;;;73.22;34.03;;;256.30;1868.80;;;;;;4944092;29;20031;-93
2022/02/19 09:00:35;;;;;;;70.38;31.50;;;256.40;1868.80;;;;;;4942470;29;20038;-93
2022/02/19 09:03:01;;;;;;;53.03;30.27;;;256.40;1868.80;;;;;;4943143;29;20111;-93
2022/02/19 09:05:28;;;;;;;54.13;34.53;;;256.50;1868.80;;;;;;4944475;29;20027;-94
2022/02/19 09:07:54;;;;;;;40.80;26.00;;;256.50;1843.20;;;;;;4942994;29;20113;-93
2022/02/19 09:10:20;;;;;;;35.95;17.80;;;256.50;1843.20;;;;;;4940880;29;20063;-94
2022/02/19 09:12:49;;;;;;;28.08;13.90;;;256.60;1843.20;;;;;;4941113;29;20027;-93
2022/02/19 09:15:19;;;;;;;32.72;16.15;;;281.60;1868.80;;;;;;4942811;29;20027;-96
2022/02/19 09:17:46;;;;;;;46.85;22.55;;;256.70;1868.80;;;;;;4954031;29;20090;-93
2022/02/19 09:20:16;;;;;;;47.35;21.55;;;256.70;1817.60;;;;;;4942865;29;20017;-96
2022/02/19 09:22:43;;;;;;;183.85;77.80;;;256.70;1843.20;;;;;;4966726;28;20043;-93
2022/02/19 09:25:11;;;;;;;135.52;50.35;;;256.70;1843.20;;;;;;4947774;29;20007;-93
2022/02/19 09:27:37;;;;;;;33.30;14.18;;;256.70;1843.20;;;;;;4942651;29;20035;-93
2022/02/19 09:30:05;;;;;;;98.15;31.42;;;256.70;1843.20;;;;;;4954070;29;20034;-93
2022/02/19 09:32:31;;;;;;;153.02;44.20;;;256.70;1843.20;;;;;;4954373;28;20079;-94
2022/02/19 09:34:57;;;;;;;43.17;19.35;;;256.80;1817.60;;;;;;4941002;29;20055;-94
2022/02/19 09:37:23;;;;;;;164.15;46.83;;;256.80;1843.20;;;;;;4940014;29;20039;-90
2022/02/19 09:39:50;;;;;;;99.80;41.00;;;256.90;1817.60;;;;;;4939035;29;20082;-90
2022/02/19 09:42:17;;;;;;;87.03;37.58;;;281.70;1843.20;;;;;;4930605;29;20496;-96
2022/02/19 09:44:43;;;;;;;116.72;56.88;;;281.80;1868.80;;;;;;4921215;29;20079;-96
2022/02/19 09:47:11;;;;;;;26.02;15.30;;;282.00;1894.40;;;;;;4946443;29;20046;-92
2022/02/19 09:49:39;;;;;;;45.95;23.92;;;282.10;1868.80;;;;;;4940238;29;20398;-92
2022/02/19 09:52:06;;;;;;;40.13;17.48;;;282.20;1868.80;;;;;;4925432;29;20040;-92
2022/02/19 09:54:32;;;;;;;25.85;12.68;;;282.40;1843.20;;;;;;4926035;29;20024;-93
2022/02/19 09:56:59;;;;;;;58.45;29.40;;;282.30;1843.20;;;;;;4926315;29;20028;-94
2022/02/19 09:59:26;;;;;;;32.63;16.38;;;282.30;1817.60;;;;;;4924965;29;20035;-95
2022/02/19 10:02:06;;;;;;;19.58;9.20;;;282.50;1740.80;;;;;;4931343;29;20027;-92
2022/02/19 10:04:32;;;;;;;41.55;19.17;;;307.20;1766.40;;;;;;4944724;29;20042;-96
2022/02/19 10:07:10;;;;;;;53.97;24.23;;;307.20;1792.00;;;;;;4942078;29;20039;-93
2022/02/19 10:09:41;;;;;;;26.15;11.77;;;307.30;1740.80;;;;;;4927107;29;20392;-93
2022/02/19 10:12:11;;;;;;;28.42;15.13;;;307.30;1740.80;;;;;;4942085;29;20035;-94
2022/02/19 10:14:39;;;;;;;33.97;12.88;;;307.30;1766.40;;;;;;4936193;29;20062;-93
2022/02/19 10:17:18;;;;;;;105.38;49.95;;;307.30;1740.80;;;;;;4922502;29;20035;-92
2022/02/19 10:20:00;;;;;;;161.35;58.63;;;307.30;1740.80;;;;;;4927887;29;20489;-95
2022/02/19 10:22:52;;;;;;;202.88;64.00;;;307.30;1715.20;;;;;;4933607;29;20138;-96
2022/02/19 10:25:24;;;;;;;115.18;39.72;;;307.40;1715.20;;;;;;4944147;29;20062;-95
2022/02/19 10:28:04;;;;;;;58.47;22.65;;;307.40;1715.20;;;;;;4925281;29;20110;-93
2022/02/19 10:30:30;;;;;;;35.60;20.33;;;307.40;1689.60;;;;;;4925659;29;20032;-96
2022/02/19 10:33:00;;;;;;;231.52;81.50;;;307.50;1689.60;;;;;;4944563;29;20031;-96
2022/02/19 10:35:38;;;;;;;108.70;40.85;;;307.50;1689.60;;;;;;4942874;29;20027;-94
2022/02/19 10:38:15;;;;;;;195.35;70.72;;;307.50;1689.60;;;;;;4943428;29;20034;-96
2022/02/19 10:40:52;;;;;;;48.30;18.83;;;307.40;1664.00;;;;;;4936877;29;20035;-94
2022/02/19 10:43:29;;;;;;;19.17;9.15;;;307.50;1638.40;;;;;;4944206;29;20043;-95
2022/02/19 10:45:59;;;;;;;28.33;14.00;;;307.50;1664.00;;;;;;4944208;29;20039;-96
2022/02/19 10:48:36;;;;;;;32.55;14.68;;;307.40;1664.00;;;;;;4944821;29;20055;-96
2022/02/19 10:51:19;;;;;;;54.85;25.52;;;307.40;1689.60;;;;;;4941081;29;20023;-96
2022/02/19 10:53:58;;;;;;;100.85;54.75;;;307.40;1689.60;;;;;;4930641;29;20032;-96
2022/02/19 10:56:29;;;;;;;53.13;29.70;;;307.30;1689.60;;;;;;4940638;29;20436;-96
2022/02/19 10:59:20;;;;;;;19.05;9.43;;;307.30;1689.60;;;;;;4925909;29;20035;-96
2022/02/19 11:01:57;;;;;;;32.58;14.98;;;307.30;1664.00;;;;;;4940560;29;20028;-96
2022/02/19 11:04:23;;;;;;;16.40;7.55;;;307.20;1689.60;;;;;;4923602;29;20034;-94
2022/02/19 11:06:49;;;;;;;23.25;11.23;;;307.20;1689.60;;;;;;4924963;29;20039;-95
2022/02/19 11:09:16;;;;;;;26.55;10.73;;;307.20;1689.60;;;;;;4922752;29;20023;-96
2022/02/19 11:11:44;;;;;;;40.50;18.23;;;307.50;1638.40;;;;;;4929359;29;20035;-96
2022/02/19 11:14:13;;;;;;;26.00;12.50;;;307.20;1664.00;;;;;;4925549;29;20019;-96
2022/02/19 11:16:39;;;;;;;26.45;12.90;;;307.20;1664.00;;;;;;4925612;29;20035;-95
2022/02/19 11:19:18;;;;;;;24.95;11.90;;;307.20;1638.40;;;;;;4936223;29;20028;-96
2022/02/19 11:21:54;;;;;;;30.13;13.18;;;307.20;1612.80;;;;;;5117057;23;20042;-96
2022/02/19 11:25:13;;;;;;;91.25;38.60;;;307.20;1612.80;;;;;;4994956;28;20050;-96
2022/02/19 11:30:23;;;;;;;35.60;14.63;;;282.50;1587.20;;;;;;5919682;23;20068;31
2022/02/19 11:32:59;;;;;;;27.67;12.27;;;307.30;1587.20;;;;;;4954426;28;20082;-96
2022/02/19 11:35:34;;;;;;;120.10;56.80;;;282.10;1561.60;;;;;;4940259;28;20043;-96
2022/02/19 11:38:58;;;;;;;166.40;66.32;;;307.30;1587.20;;;;;;5010435;23;20112;-96
2022/02/19 11:41:49;;;;;;;298.88;123.22;;;307.30;1587.20;;;;;;4910269;29;20040;-96
2022/02/19 11:44:36;;;;;;;175.90;65.88;;;307.30;1561.60;;;;;;4955133;29;20095;-96
2022/02/19 11:47:29;;;;;;;154.52;58.25;;;307.30;1561.60;;;;;;4950697;29;20032;-96
2022/02/19 11:50:40;;;;;;;105.35;41.25;;;307.20;1561.60;;;;;;4904414;29;20040;-96
2022/02/19 11:53:44;;;;;;;106.50;47.60;;;307.20;1536.00;;;;;;4983025;23;20055;-96
2022/02/19 12:03:22;;;;;;;113.85;56.45;;;307.20;1587.20;;;;;;4998461;28;20043;-96
2022/02/19 12:06:06;;;;;;;164.48;74.88;;;307.20;1587.20;;;;;;4934469;23;20051;-95
2022/02/19 12:09:28;;;;;;;345.67;132.63;;;307.20;1587.20;;;;;;4980446;28;20035;-96
2022/02/19 12:12:03;;;;;;;287.40;110.38;;;307.20;1587.20;;;;;;4912925;29;20089;-96
2022/02/19 12:14:50;;;;;;;180.45;72.22;;;307.20;1587.20;;;;;;5196685;23;20051;-96
2022/02/19 12:17:48;;;;;;;326.35;126.35;;;307.20;1587.20;;;;;;4922702;29;20024;-96
2022/02/19 12:20:35;;;;;;;60.03;24.30;;;307.30;1587.20;;;;;;4926240;29;20032;-96
2022/02/19 12:23:03;;;;;;;170.93;58.88;;;307.30;1587.20;;;;;;4942641;28;20156;-93
2022/02/19 12:25:54;;;;;;;204.45;74.55;;;307.30;1587.20;;;;;;4954564;29;20039;-93
2022/02/19 12:28:21;;;;;;;460.38;219.95;;;307.40;1587.20;;;;;;4939569;29;20027;-94
2022/02/19 12:31:21;;;;;;;230.48;110.00;;;307.40;1561.60;;;;;;4959785;29;20027;-96
2022/02/19 12:33:52;;;;;;;181.43;84.22;;;307.50;1587.20;;;;;;4940186;29;20448;-92
2022/02/19 12:36:18;;;;;;;160.82;59.38;;;307.50;1587.20;;;;;;4958765;29;20020;-91
2022/02/19 12:38:53;;;;;;;142.20;56.17;;;307.60;1561.60;;;;;;4962452;29;20018;-95
2022/02/19 12:41:57;;;;;;;198.15;93.20;;;307.70;1587.20;;;;;;4964070;28;20395;-96
2022/02/19 12:44:33;;;;;;;;;;;307.80;1561.60;;;;;;4964865;28;20007;-96
2022/02/19 12:47:18;;;;;;;75.10;43.83;;;307.90;1561.60;;;;;;4971308;28;19925;-96